Aylor, Virginia
Current Conditions -  °F | °C
As of 1:35 AM on Monday 24 Nov 2014 (Local Time) from KOMH Reporting Station
Light Rain Light Rain  
Wind Chill: 61°   Ceiling: 800
Heat Index: 61°   Visibility: 4mi
Dew Point: 59°   Wind: 13mph
Humidity: 94%   Direction: 150°SSE
Pressure: 29.67"   Gusts: 21mph
Location:  38.4007°N, 78.3336°W
Report Text: KOMH 240635Z AUTO 15011G18KT 4SM -RA BKN008 OVC014 16/15 A2967 RMK AO2 P0010
Loading
Personal Weather Stations






























Interactive Weather Map New forecast layout! Learn more

10-Day Weather Forecast

Advertisements
Track Severe Weather on mobile